sensor_id;sensor_type;location;lat;lon;timestamp;P1;durP1;ratioP1;P2;durP2;ratioP2
45041;SDS011;30779;52.096;4.410;2022-07-24T00:01:41;8.73;;;6.13;;
45041;SDS011;30779;52.096;4.410;2022-07-24T00:04:42;12.23;;;6.50;;
45041;SDS011;30779;52.096;4.410;2022-07-24T00:07:43;7.78;;;6.97;;
45041;SDS011;30779;52.096;4.410;2022-07-24T00:10:43;13.65;;;7.57;;
45041;SDS011;30779;52.096;4.410;2022-07-24T00:13:44;8.05;;;6.60;;
45041;SDS011;30779;52.096;4.410;2022-07-24T00:16:45;9.63;;;7.00;;
45041;SDS011;30779;52.096;4.410;2022-07-24T00:19:45;8.38;;;6.75;;
45041;SDS011;30779;52.096;4.410;2022-07-24T00:22:46;8.30;;;5.93;;
45041;SDS011;30779;52.096;4.410;2022-07-24T00:25:47;7.43;;;6.30;;
45041;SDS011;30779;52.096;4.410;2022-07-24T00:28:47;12.15;;;6.28;;
45041;SDS011;30779;52.096;4.410;2022-07-24T00:31:48;12.27;;;6.57;;
45041;SDS011;30779;52.096;4.410;2022-07-24T00:34:49;9.20;;;6.40;;
45041;SDS011;30779;52.096;4.410;2022-07-24T00:37:50;9.38;;;5.97;;
45041;SDS011;30779;52.096;4.410;2022-07-24T00:40:50;8.73;;;6.35;;
45041;SDS011;30779;52.096;4.410;2022-07-24T00:43:58;8.93;;;6.85;;
45041;SDS011;30779;52.096;4.410;2022-07-24T00:47:04;8.38;;;7.30;;
45041;SDS011;30779;52.096;4.410;2022-07-24T00:50:04;12.85;;;7.90;;
45041;SDS011;30779;52.096;4.410;2022-07-24T00:53:06;10.60;;;7.70;;
45041;SDS011;30779;52.096;4.410;2022-07-24T00:56:07;9.05;;;6.97;;
45041;SDS011;30779;52.096;4.410;2022-07-24T00:59:08;12.00;;;7.13;;
45041;SDS011;30779;52.096;4.410;2022-07-24T01:02:08;10.65;;;7.65;;
45041;SDS011;30779;52.096;4.410;2022-07-24T01:05:09;9.98;;;7.03;;
45041;SDS011;30779;52.096;4.410;2022-07-24T01:08:11;10.40;;;6.78;;
45041;SDS011;30779;52.096;4.410;2022-07-24T01:11:11;12.80;;;7.82;;
45041;SDS011;30779;52.096;4.410;2022-07-24T01:14:12;10.30;;;7.82;;
45041;SDS011;30779;52.096;4.410;2022-07-24T01:17:13;12.10;;;7.30;;
45041;SDS011;30779;52.096;4.410;2022-07-24T01:20:14;11.88;;;7.68;;
45041;SDS011;30779;52.096;4.410;2022-07-24T01:23:14;10.57;;;7.72;;
45041;SDS011;30779;52.096;4.410;2022-07-24T01:26:15;10.30;;;6.57;;
45041;SDS011;30779;52.096;4.410;2022-07-24T01:29:16;11.95;;;7.22;;
45041;SDS011;30779;52.096;4.410;2022-07-24T01:32:17;12.68;;;6.80;;
45041;SDS011;30779;52.096;4.410;2022-07-24T01:35:18;11.30;;;6.40;;
45041;SDS011;30779;52.096;4.410;2022-07-24T01:38:18;11.95;;;7.28;;
45041;SDS011;30779;52.096;4.410;2022-07-24T01:41:19;8.02;;;6.47;;
45041;SDS011;30779;52.096;4.410;2022-07-24T01:44:20;9.65;;;6.32;;
45041;SDS011;30779;52.096;4.410;2022-07-24T01:47:21;9.90;;;6.97;;
45041;SDS011;30779;52.096;4.410;2022-07-24T01:50:21;8.30;;;5.85;;
45041;SDS011;30779;52.096;4.410;2022-07-24T01:53:22;9.40;;;6.00;;
45041;SDS011;30779;52.096;4.410;2022-07-24T01:56:23;10.55;;;5.97;;
45041;SDS011;30779;52.096;4.410;2022-07-24T01:59:24;6.90;;;5.97;;
45041;SDS011;30779;52.096;4.410;2022-07-24T02:02:25;8.70;;;6.00;;
45041;SDS011;30779;52.096;4.410;2022-07-24T02:05:26;10.15;;;5.93;;
45041;SDS011;30779;52.096;4.410;2022-07-24T02:08:27;8.80;;;5.25;;
45041;SDS011;30779;52.096;4.410;2022-07-24T02:11:27;11.13;;;6.35;;
45041;SDS011;30779;52.096;4.410;2022-07-24T02:14:28;9.85;;;5.18;;
45041;SDS011;30779;52.096;4.410;2022-07-24T02:17:29;12.98;;;6.05;;
45041;SDS011;30779;52.096;4.410;2022-07-24T02:20:29;10.45;;;6.28;;
45041;SDS011;30779;52.096;4.410;2022-07-24T02:23:30;11.07;;;6.03;;
45041;SDS011;30779;52.096;4.410;2022-07-24T02:26:31;8.02;;;5.90;;
45041;SDS011;30779;52.096;4.410;2022-07-24T02:29:32;9.52;;;6.03;;
45041;SDS011;30779;52.096;4.410;2022-07-24T02:32:32;11.02;;;5.18;;
45041;SDS011;30779;52.096;4.410;2022-07-24T02:35:33;6.78;;;5.32;;
45041;SDS011;30779;52.096;4.410;2022-07-24T02:38:34;8.65;;;5.68;;
45041;SDS011;30779;52.096;4.410;2022-07-24T02:41:35;13.13;;;5.88;;
45041;SDS011;30779;52.096;4.410;2022-07-24T02:44:36;7.97;;;5.28;;
45041;SDS011;30779;52.096;4.410;2022-07-24T02:47:45;6.53;;;4.50;;
45041;SDS011;30779;52.096;4.410;2022-07-24T02:50:51;5.85;;;4.60;;
45041;SDS011;30779;52.096;4.410;2022-07-24T02:53:52;9.93;;;5.05;;
45041;SDS011;30779;52.096;4.410;2022-07-24T02:56:52;7.28;;;4.82;;
45041;SDS011;30779;52.096;4.410;2022-07-24T02:59:53;7.57;;;5.38;;
45041;SDS011;30779;52.096;4.410;2022-07-24T03:02:54;8.20;;;4.75;;
45041;SDS011;30779;52.096;4.410;2022-07-24T03:05:54;11.45;;;4.25;;
45041;SDS011;30779;52.096;4.410;2022-07-24T03:08:55;7.18;;;4.80;;
45041;SDS011;30779;52.096;4.410;2022-07-24T03:11:56;7.32;;;4.80;;
45041;SDS011;30779;52.096;4.410;2022-07-24T03:14:56;7.88;;;5.15;;
45041;SDS011;30779;52.096;4.410;2022-07-24T03:17:57;4.85;;;4.38;;
45041;SDS011;30779;52.096;4.410;2022-07-24T03:20:58;6.18;;;4.35;;
45041;SDS011;30779;52.096;4.410;2022-07-24T03:23:58;4.47;;;3.95;;
45041;SDS011;30779;52.096;4.410;2022-07-24T03:26:59;8.15;;;4.75;;
45041;SDS011;30779;52.096;4.410;2022-07-24T03:29:59;6.47;;;3.78;;
45041;SDS011;30779;52.096;4.410;2022-07-24T03:33:00;6.55;;;4.00;;
45041;SDS011;30779;52.096;4.410;2022-07-24T03:36:01;7.22;;;4.00;;
45041;SDS011;30779;52.096;4.410;2022-07-24T03:39:02;7.80;;;4.50;;
45041;SDS011;30779;52.096;4.410;2022-07-24T03:42:04;6.87;;;3.50;;
45041;SDS011;30779;52.096;4.410;2022-07-24T03:45:05;6.35;;;4.20;;
45041;SDS011;30779;52.096;4.410;2022-07-24T03:48:06;7.53;;;4.05;;
45041;SDS011;30779;52.096;4.410;2022-07-24T03:51:06;5.18;;;3.50;;
45041;SDS011;30779;52.096;4.410;2022-07-24T03:54:07;6.03;;;3.70;;
45041;SDS011;30779;52.096;4.410;2022-07-24T03:57:08;5.40;;;3.17;;
45041;SDS011;30779;52.096;4.410;2022-07-24T04:00:09;7.38;;;3.90;;
45041;SDS011;30779;52.096;4.410;2022-07-24T04:03:10;4.78;;;3.08;;
45041;SDS011;30779;52.096;4.410;2022-07-24T04:06:11;5.65;;;3.25;;
45041;SDS011;30779;52.096;4.410;2022-07-24T04:09:11;6.18;;;3.63;;
45041;SDS011;30779;52.096;4.410;2022-07-24T04:12:13;4.72;;;3.17;;
45041;SDS011;30779;52.096;4.410;2022-07-24T04:15:14;5.50;;;3.13;;
45041;SDS011;30779;52.096;4.410;2022-07-24T04:18:14;9.18;;;3.67;;
45041;SDS011;30779;52.096;4.410;2022-07-24T04:21:15;4.63;;;3.55;;
45041;SDS011;30779;52.096;4.410;2022-07-24T04:24:16;6.00;;;4.00;;
45041;SDS011;30779;52.096;4.410;2022-07-24T04:27:17;5.10;;;3.47;;
45041;SDS011;30779;52.096;4.410;2022-07-24T04:30:17;7.35;;;3.92;;
45041;SDS011;30779;52.096;4.410;2022-07-24T04:33:18;7.07;;;4.15;;
45041;SDS011;30779;52.096;4.410;2022-07-24T04:36:19;4.95;;;3.10;;
45041;SDS011;30779;52.096;4.410;2022-07-24T04:39:19;4.10;;;3.10;;
45041;SDS011;30779;52.096;4.410;2022-07-24T04:42:20;6.97;;;3.40;;
45041;SDS011;30779;52.096;4.410;2022-07-24T04:45:21;4.63;;;3.25;;
45041;SDS011;30779;52.096;4.410;2022-07-24T04:48:21;3.90;;;3.28;;
45041;SDS011;30779;52.096;4.410;2022-07-24T04:51:22;5.03;;;3.33;;
45041;SDS011;30779;52.096;4.410;2022-07-24T04:54:22;5.38;;;3.15;;
45041;SDS011;30779;52.096;4.410;2022-07-24T04:57:23;5.72;;;3.33;;
45041;SDS011;30779;52.096;4.410;2022-07-24T05:00:24;8.27;;;3.22;;
45041;SDS011;30779;52.096;4.410;2022-07-24T05:03:24;5.88;;;3.78;;
45041;SDS011;30779;52.096;4.410;2022-07-24T05:06:25;4.13;;;2.80;;
45041;SDS011;30779;52.096;4.410;2022-07-24T05:09:26;4.78;;;3.15;;
45041;SDS011;30779;52.096;4.410;2022-07-24T05:12:27;4.57;;;3.05;;
45041;SDS011;30779;52.096;4.410;2022-07-24T05:15:28;4.22;;;3.03;;
45041;SDS011;30779;52.096;4.410;2022-07-24T05:18:29;4.43;;;3.08;;
45041;SDS011;30779;52.096;4.410;2022-07-24T05:21:29;6.13;;;3.95;;
45041;SDS011;30779;52.096;4.410;2022-07-24T05:24:30;3.08;;;2.55;;
45041;SDS011;30779;52.096;4.410;2022-07-24T05:27:30;4.88;;;3.20;;
45041;SDS011;30779;52.096;4.410;2022-07-24T05:30:31;5.10;;;3.03;;
45041;SDS011;30779;52.096;4.410;2022-07-24T05:33:32;6.65;;;3.03;;
45041;SDS011;30779;52.096;4.410;2022-07-24T05:36:32;3.80;;;2.65;;
45041;SDS011;30779;52.096;4.410;2022-07-24T05:39:33;4.38;;;2.85;;
45041;SDS011;30779;52.096;4.410;2022-07-24T05:42:34;4.57;;;3.03;;
45041;SDS011;30779;52.096;4.410;2022-07-24T05:45:34;4.13;;;3.03;;
45041;SDS011;30779;52.096;4.410;2022-07-24T05:48:35;6.47;;;3.00;;
45041;SDS011;30779;52.096;4.410;2022-07-24T05:51:36;4.45;;;2.47;;
45041;SDS011;30779;52.096;4.410;2022-07-24T05:54:36;5.65;;;3.05;;
45041;SDS011;30779;52.096;4.410;2022-07-24T05:57:37;4.63;;;2.50;;
45041;SDS011;30779;52.096;4.410;2022-07-24T06:00:37;12.90;;;3.30;;
45041;SDS011;30779;52.096;4.410;2022-07-24T06:03:38;3.88;;;2.53;;
45041;SDS011;30779;52.096;4.410;2022-07-24T06:06:39;4.45;;;2.60;;
45041;SDS011;30779;52.096;4.410;2022-07-24T06:09:40;5.63;;;2.60;;
45041;SDS011;30779;52.096;4.410;2022-07-24T06:12:41;5.18;;;2.70;;
45041;SDS011;30779;52.096;4.410;2022-07-24T06:15:42;4.70;;;2.72;;
45041;SDS011;30779;52.096;4.410;2022-07-24T06:18:43;4.35;;;3.05;;
45041;SDS011;30779;52.096;4.410;2022-07-24T06:21:44;3.63;;;2.83;;
45041;SDS011;30779;52.096;4.410;2022-07-24T06:24:45;3.47;;;2.35;;
45041;SDS011;30779;52.096;4.410;2022-07-24T06:27:47;4.18;;;2.83;;
45041;SDS011;30779;52.096;4.410;2022-07-24T06:30:49;2.72;;;2.42;;
45041;SDS011;30779;52.096;4.410;2022-07-24T06:33:50;5.03;;;2.63;;
45041;SDS011;30779;52.096;4.410;2022-07-24T06:36:50;3.85;;;2.78;;
45041;SDS011;30779;52.096;4.410;2022-07-24T06:39:51;5.18;;;2.50;;
45041;SDS011;30779;52.096;4.410;2022-07-24T06:42:52;3.83;;;2.25;;
45041;SDS011;30779;52.096;4.410;2022-07-24T06:45:53;4.50;;;2.20;;
45041;SDS011;30779;52.096;4.410;2022-07-24T06:48:53;3.75;;;2.85;;
45041;SDS011;30779;52.096;4.410;2022-07-24T06:51:54;3.38;;;2.45;;
45041;SDS011;30779;52.096;4.410;2022-07-24T06:54:55;2.88;;;2.50;;
45041;SDS011;30779;52.096;4.410;2022-07-24T06:57:55;3.67;;;2.22;;
45041;SDS011;30779;52.096;4.410;2022-07-24T07:00:56;4.05;;;2.40;;
45041;SDS011;30779;52.096;4.410;2022-07-24T07:03:57;3.92;;;2.35;;
45041;SDS011;30779;52.096;4.410;2022-07-24T07:06:57;3.65;;;2.00;;
45041;SDS011;30779;52.096;4.410;2022-07-24T07:09:58;4.45;;;2.38;;
45041;SDS011;30779;52.096;4.410;2022-07-24T07:12:58;2.60;;;2.00;;
45041;SDS011;30779;52.096;4.410;2022-07-24T07:16:00;4.63;;;2.40;;
45041;SDS011;30779;52.096;4.410;2022-07-24T07:19:01;2.80;;;1.98;;
45041;SDS011;30779;52.096;4.410;2022-07-24T07:22:01;3.65;;;1.77;;
45041;SDS011;30779;52.096;4.410;2022-07-24T07:25:02;3.83;;;2.05;;
45041;SDS011;30779;52.096;4.410;2022-07-24T07:28:03;2.80;;;1.95;;
45041;SDS011;30779;52.096;4.410;2022-07-24T07:31:04;2.58;;;1.90;;
45041;SDS011;30779;52.096;4.410;2022-07-24T07:34:04;2.60;;;2.20;;
45041;SDS011;30779;52.096;4.410;2022-07-24T07:37:05;3.05;;;1.90;;
45041;SDS011;30779;52.096;4.410;2022-07-24T07:40:06;3.42;;;2.20;;
45041;SDS011;30779;52.096;4.410;2022-07-24T07:43:07;2.97;;;1.60;;
45041;SDS011;30779;52.096;4.410;2022-07-24T07:46:08;3.85;;;1.75;;
45041;SDS011;30779;52.096;4.410;2022-07-24T07:49:09;3.10;;;1.70;;
45041;SDS011;30779;52.096;4.410;2022-07-24T07:52:09;3.78;;;1.88;;
45041;SDS011;30779;52.096;4.410;2022-07-24T07:55:10;3.50;;;1.90;;
45041;SDS011;30779;52.096;4.410;2022-07-24T07:58:11;3.10;;;1.73;;
45041;SDS011;30779;52.096;4.410;2022-07-24T08:01:11;1.85;;;1.45;;
45041;SDS011;30779;52.096;4.410;2022-07-24T08:04:12;3.90;;;1.85;;
45041;SDS011;30779;52.096;4.410;2022-07-24T08:07:13;3.42;;;2.03;;
45041;SDS011;30779;52.096;4.410;2022-07-24T08:10:13;2.95;;;1.80;;
45041;SDS011;30779;52.096;4.410;2022-07-24T08:13:14;2.60;;;2.10;;
45041;SDS011;30779;52.096;4.410;2022-07-24T08:16:17;2.33;;;1.95;;
45041;SDS011;30779;52.096;4.410;2022-07-24T08:19:18;1.98;;;1.70;;
45041;SDS011;30779;52.096;4.410;2022-07-24T08:22:19;2.45;;;2.03;;
45041;SDS011;30779;52.096;4.410;2022-07-24T08:25:20;2.28;;;1.88;;
45041;SDS011;30779;52.096;4.410;2022-07-24T08:28:21;2.75;;;1.67;;
45041;SDS011;30779;52.096;4.410;2022-07-24T08:31:22;2.97;;;1.80;;
45041;SDS011;30779;52.096;4.410;2022-07-24T08:34:25;2.40;;;1.98;;
45041;SDS011;30779;52.096;4.410;2022-07-24T08:37:25;2.70;;;2.20;;
45041;SDS011;30779;52.096;4.410;2022-07-24T08:40:28;3.28;;;1.83;;
45041;SDS011;30779;52.096;4.410;2022-07-24T08:43:32;2.47;;;1.90;;
45041;SDS011;30779;52.096;4.410;2022-07-24T08:46:34;2.53;;;1.90;;
45041;SDS011;30779;52.096;4.410;2022-07-24T08:49:38;2.50;;;1.60;;
45041;SDS011;30779;52.096;4.410;2022-07-24T08:52:39;2.38;;;2.13;;
45041;SDS011;30779;52.096;4.410;2022-07-24T08:55:40;3.97;;;1.75;;
45041;SDS011;30779;52.096;4.410;2022-07-24T08:58:41;2.38;;;1.80;;
45041;SDS011;30779;52.096;4.410;2022-07-24T09:01:41;3.25;;;2.25;;
45041;SDS011;30779;52.096;4.410;2022-07-24T09:04:43;2.63;;;1.90;;
45041;SDS011;30779;52.096;4.410;2022-07-24T09:07:45;3.05;;;1.98;;
45041;SDS011;30779;52.096;4.410;2022-07-24T09:11:20;2.88;;;1.95;;
45041;SDS011;30779;52.096;4.410;2022-07-24T09:14:19;2.25;;;1.92;;
45041;SDS011;30779;52.096;4.410;2022-07-24T09:17:31;2.10;;;1.80;;
45041;SDS011;30779;52.096;4.410;2022-07-24T09:20:32;3.20;;;1.98;;
45041;SDS011;30779;52.096;4.410;2022-07-24T09:23:37;2.58;;;1.80;;
45041;SDS011;30779;52.096;4.410;2022-07-24T09:26:57;2.72;;;1.70;;
45041;SDS011;30779;52.096;4.410;2022-07-24T09:29:58;2.35;;;1.80;;
45041;SDS011;30779;52.096;4.410;2022-07-24T09:33:00;2.15;;;1.60;;
45041;SDS011;30779;52.096;4.410;2022-07-24T09:36:02;2.35;;;1.83;;
45041;SDS011;30779;52.096;4.410;2022-07-24T09:39:17;3.85;;;2.03;;
45041;SDS011;30779;52.096;4.410;2022-07-24T09:42:18;3.33;;;2.03;;
45041;SDS011;30779;52.096;4.410;2022-07-24T09:45:29;2.08;;;1.55;;
45041;SDS011;30779;52.096;4.410;2022-07-24T09:48:55;2.38;;;1.88;;
45041;SDS011;30779;52.096;4.410;2022-07-24T09:52:10;2.13;;;1.85;;
45041;SDS011;30779;52.096;4.410;2022-07-24T09:55:19;2.97;;;1.85;;
45041;SDS011;30779;52.096;4.410;2022-07-24T09:58:20;2.38;;;2.17;;
45041;SDS011;30779;52.096;4.410;2022-07-24T10:01:22;3.17;;;1.88;;
45041;SDS011;30779;52.096;4.410;2022-07-24T10:04:24;1.90;;;1.58;;
45041;SDS011;30779;52.096;4.410;2022-07-24T10:07:26;4.72;;;2.00;;
45041;SDS011;30779;52.096;4.410;2022-07-24T10:10:28;1.73;;;1.60;;
45041;SDS011;30779;52.096;4.410;2022-07-24T10:13:31;2.15;;;1.80;;
45041;SDS011;30779;52.096;4.410;2022-07-24T10:16:33;3.45;;;2.30;;
45041;SDS011;30779;52.096;4.410;2022-07-24T10:19:44;2.67;;;1.98;;
45041;SDS011;30779;52.096;4.410;2022-07-24T10:22:57;2.50;;;1.90;;
45041;SDS011;30779;52.096;4.410;2022-07-24T10:32:14;3.75;;;1.90;;
45041;SDS011;30779;52.096;4.410;2022-07-24T10:35:20;4.00;;;2.05;;
45041;SDS011;30779;52.096;4.410;2022-07-24T10:38:32;2.03;;;1.77;;
45041;SDS011;30779;52.096;4.410;2022-07-24T10:41:36;2.60;;;1.77;;
45041;SDS011;30779;52.096;4.410;2022-07-24T10:44:37;2.70;;;1.97;;
45041;SDS011;30779;52.096;4.410;2022-07-24T10:47:39;3.30;;;1.92;;
45041;SDS011;30779;52.096;4.410;2022-07-24T10:54:01;5.78;;;2.10;;
45041;SDS011;30779;52.096;4.410;2022-07-24T10:57:02;2.80;;;2.03;;
45041;SDS011;30779;52.096;4.410;2022-07-24T11:00:20;3.60;;;2.23;;
45041;SDS011;30779;52.096;4.410;2022-07-24T11:03:26;2.67;;;1.85;;
45041;SDS011;30779;52.096;4.410;2022-07-24T11:06:43;4.05;;;1.98;;
45041;SDS011;30779;52.096;4.410;2022-07-24T11:09:58;5.07;;;1.95;;
45041;SDS011;30779;52.096;4.410;2022-07-24T11:13:26;3.17;;;2.10;;
45041;SDS011;30779;52.096;4.410;2022-07-24T11:16:34;4.72;;;2.25;;
45041;SDS011;30779;52.096;4.410;2022-07-24T11:19:35;3.20;;;2.08;;
45041;SDS011;30779;52.096;4.410;2022-07-24T11:22:38;5.03;;;2.45;;
45041;SDS011;30779;52.096;4.410;2022-07-24T11:25:41;2.03;;;1.83;;
45041;SDS011;30779;52.096;4.410;2022-07-24T11:28:42;3.40;;;2.30;;
45041;SDS011;30779;52.096;4.410;2022-07-24T11:32:19;4.25;;;2.42;;
45041;SDS011;30779;52.096;4.410;2022-07-24T11:35:27;3.05;;;2.10;;
45041;SDS011;30779;52.096;4.410;2022-07-24T11:38:29;4.95;;;2.22;;
45041;SDS011;30779;52.096;4.410;2022-07-24T11:41:46;5.77;;;2.40;;
45041;SDS011;30779;52.096;4.410;2022-07-24T11:44:49;3.65;;;2.30;;
45041;SDS011;30779;52.096;4.410;2022-07-24T11:47:50;2.88;;;2.00;;
45041;SDS011;30779;52.096;4.410;2022-07-24T11:51:04;2.40;;;1.90;;
45041;SDS011;30779;52.096;4.410;2022-07-24T11:54:05;2.53;;;1.80;;
45041;SDS011;30779;52.096;4.410;2022-07-24T11:57:14;2.43;;;2.23;;
45041;SDS011;30779;52.096;4.410;2022-07-24T12:00:23;2.80;;;2.03;;
45041;SDS011;30779;52.096;4.410;2022-07-24T12:03:27;2.88;;;2.05;;
45041;SDS011;30779;52.096;4.410;2022-07-24T12:06:28;2.77;;;1.60;;
45041;SDS011;30779;52.096;4.410;2022-07-24T12:09:29;2.83;;;2.27;;
45041;SDS011;30779;52.096;4.410;2022-07-24T12:12:31;2.55;;;1.85;;
45041;SDS011;30779;52.096;4.410;2022-07-24T12:15:32;3.55;;;2.20;;
45041;SDS011;30779;52.096;4.410;2022-07-24T12:18:38;2.65;;;1.83;;
45041;SDS011;30779;52.096;4.410;2022-07-24T12:21:39;2.47;;;1.63;;
45041;SDS011;30779;52.096;4.410;2022-07-24T12:24:40;4.07;;;1.95;;
45041;SDS011;30779;52.096;4.410;2022-07-24T12:27:42;2.23;;;2.03;;
45041;SDS011;30779;52.096;4.410;2022-07-24T12:30:45;5.57;;;2.30;;
45041;SDS011;30779;52.096;4.410;2022-07-24T12:33:54;2.50;;;1.95;;
45041;SDS011;30779;52.096;4.410;2022-07-24T12:36:55;2.72;;;1.98;;
45041;SDS011;30779;52.096;4.410;2022-07-24T12:39:56;3.43;;;2.07;;
45041;SDS011;30779;52.096;4.410;2022-07-24T12:42:59;1.80;;;1.55;;
45041;SDS011;30779;52.096;4.410;2022-07-24T12:46:10;2.88;;;1.90;;
45041;SDS011;30779;52.096;4.410;2022-07-24T12:49:12;3.35;;;2.22;;
45041;SDS011;30779;52.096;4.410;2022-07-24T12:52:20;3.22;;;2.10;;
45041;SDS011;30779;52.096;4.410;2022-07-24T12:55:23;1.90;;;1.70;;
45041;SDS011;30779;52.096;4.410;2022-07-24T12:58:24;2.73;;;2.03;;
45041;SDS011;30779;52.096;4.410;2022-07-24T13:01:26;3.45;;;2.17;;
45041;SDS011;30779;52.096;4.410;2022-07-24T13:04:48;2.10;;;1.90;;
45041;SDS011;30779;52.096;4.410;2022-07-24T13:07:53;3.63;;;1.70;;
45041;SDS011;30779;52.096;4.410;2022-07-24T13:10:54;3.08;;;2.10;;
45041;SDS011;30779;52.096;4.410;2022-07-24T13:17:00;4.13;;;2.38;;
45041;SDS011;30779;52.096;4.410;2022-07-24T13:20:11;3.55;;;2.28;;
45041;SDS011;30779;52.096;4.410;2022-07-24T13:23:12;3.30;;;2.07;;
45041;SDS011;30779;52.096;4.410;2022-07-24T13:26:13;2.63;;;1.83;;
45041;SDS011;30779;52.096;4.410;2022-07-24T13:29:13;2.73;;;1.70;;
45041;SDS011;30779;52.096;4.410;2022-07-24T13:32:14;3.17;;;1.92;;
45041;SDS011;30779;52.096;4.410;2022-07-24T13:35:15;2.93;;;1.67;;
45041;SDS011;30779;52.096;4.410;2022-07-24T13:38:16;3.17;;;2.20;;
45041;SDS011;30779;52.096;4.410;2022-07-24T13:41:16;2.30;;;2.10;;
45041;SDS011;30779;52.096;4.410;2022-07-24T13:44:18;4.97;;;2.20;;
45041;SDS011;30779;52.096;4.410;2022-07-24T13:47:19;2.30;;;1.77;;
45041;SDS011;30779;52.096;4.410;2022-07-24T13:50:19;3.20;;;2.73;;
45041;SDS011;30779;52.096;4.410;2022-07-24T13:53:20;4.37;;;2.93;;
45041;SDS011;30779;52.096;4.410;2022-07-24T13:56:21;4.60;;;2.47;;
45041;SDS011;30779;52.096;4.410;2022-07-24T13:59:22;4.18;;;2.80;;
45041;SDS011;30779;52.096;4.410;2022-07-24T14:02:22;4.13;;;2.67;;
45041;SDS011;30779;52.096;4.410;2022-07-24T14:05:24;2.63;;;1.87;;
45041;SDS011;30779;52.096;4.410;2022-07-24T14:08:25;2.45;;;1.90;;
45041;SDS011;30779;52.096;4.410;2022-07-24T14:11:27;4.47;;;2.35;;
45041;SDS011;30779;52.096;4.410;2022-07-24T14:14:28;3.13;;;2.70;;
45041;SDS011;30779;52.096;4.410;2022-07-24T14:17:28;3.33;;;2.37;;
45041;SDS011;30779;52.096;4.410;2022-07-24T14:20:29;2.93;;;2.07;;
45041;SDS011;30779;52.096;4.410;2022-07-24T14:23:30;3.23;;;2.17;;
45041;SDS011;30779;52.096;4.410;2022-07-24T14:26:30;4.00;;;1.97;;
45041;SDS011;30779;52.096;4.410;2022-07-24T14:29:31;3.23;;;2.13;;
45041;SDS011;30779;52.096;4.410;2022-07-24T14:32:32;4.17;;;2.27;;
45041;SDS011;30779;52.096;4.410;2022-07-24T14:35:34;2.97;;;2.20;;
45041;SDS011;30779;52.096;4.410;2022-07-24T14:38:35;2.88;;;2.60;;
45041;SDS011;30779;52.096;4.410;2022-07-24T14:41:36;3.43;;;2.43;;
45041;SDS011;30779;52.096;4.410;2022-07-24T14:44:37;3.40;;;2.40;;
45041;SDS011;30779;52.096;4.410;2022-07-24T14:47:37;6.50;;;3.40;;
45041;SDS011;30779;52.096;4.410;2022-07-24T14:50:38;4.18;;;2.90;;
45041;SDS011;30779;52.096;4.410;2022-07-24T14:53:39;2.97;;;2.30;;
45041;SDS011;30779;52.096;4.410;2022-07-24T14:56:39;2.80;;;2.20;;
45041;SDS011;30779;52.096;4.410;2022-07-24T14:59:40;2.77;;;2.40;;
45041;SDS011;30779;52.096;4.410;2022-07-24T15:02:41;3.47;;;2.23;;
45041;SDS011;30779;52.096;4.410;2022-07-24T15:05:41;4.90;;;3.47;;
45041;SDS011;30779;52.096;4.410;2022-07-24T15:08:42;3.40;;;2.53;;
45041;SDS011;30779;52.096;4.410;2022-07-24T15:11:43;5.37;;;3.00;;
45041;SDS011;30779;52.096;4.410;2022-07-24T15:14:43;5.53;;;2.63;;
45041;SDS011;30779;52.096;4.410;2022-07-24T15:17:44;6.00;;;3.13;;
45041;SDS011;30779;52.096;4.410;2022-07-24T15:20:44;3.10;;;2.60;;
45041;SDS011;30779;52.096;4.410;2022-07-24T15:23:46;2.42;;;2.20;;
45041;SDS011;30779;52.096;4.410;2022-07-24T15:26:47;2.83;;;2.20;;
45041;SDS011;30779;52.096;4.410;2022-07-24T15:29:49;3.85;;;2.63;;
45041;SDS011;30779;52.096;4.410;2022-07-24T15:32:50;4.43;;;2.53;;
45041;SDS011;30779;52.096;4.410;2022-07-24T15:35:51;4.43;;;2.40;;
45041;SDS011;30779;52.096;4.410;2022-07-24T15:38:52;5.63;;;2.53;;
45041;SDS011;30779;52.096;4.410;2022-07-24T15:41:53;2.40;;;2.20;;
45041;SDS011;30779;52.096;4.410;2022-07-24T15:44:53;3.20;;;2.43;;
45041;SDS011;30779;52.096;4.410;2022-07-24T15:47:54;3.13;;;2.27;;
45041;SDS011;30779;52.096;4.410;2022-07-24T15:50:55;3.27;;;2.90;;
45041;SDS011;30779;52.096;4.410;2022-07-24T15:53:55;2.40;;;2.20;;
45041;SDS011;30779;52.096;4.410;2022-07-24T15:56:56;3.93;;;2.63;;
45041;SDS011;30779;52.096;4.410;2022-07-24T15:59:56;3.37;;;2.73;;
45041;SDS011;30779;52.096;4.410;2022-07-24T16:02:57;3.17;;;2.57;;
45041;SDS011;30779;52.096;4.410;2022-07-24T16:05:58;3.00;;;2.50;;
45041;SDS011;30779;52.096;4.410;2022-07-24T16:08:58;4.03;;;2.67;;
45041;SDS011;30779;52.096;4.410;2022-07-24T16:11:59;2.80;;;2.40;;
45041;SDS011;30779;52.096;4.410;2022-07-24T16:15:00;3.50;;;3.03;;
45041;SDS011;30779;52.096;4.410;2022-07-24T16:18:00;6.73;;;2.80;;
45041;SDS011;30779;52.096;4.410;2022-07-24T16:21:01;3.47;;;2.67;;
45041;SDS011;30779;52.096;4.410;2022-07-24T16:24:02;3.65;;;2.85;;
45041;SDS011;30779;52.096;4.410;2022-07-24T16:27:03;3.35;;;2.45;;
45041;SDS011;30779;52.096;4.410;2022-07-24T16:30:04;3.58;;;2.33;;
45041;SDS011;30779;52.096;4.410;2022-07-24T16:33:06;3.53;;;3.22;;
45041;SDS011;30779;52.096;4.410;2022-07-24T16:36:06;5.10;;;3.03;;
45041;SDS011;30779;52.096;4.410;2022-07-24T16:39:07;5.93;;;2.80;;
45041;SDS011;30779;52.096;4.410;2022-07-24T16:42:08;3.47;;;2.40;;
45041;SDS011;30779;52.096;4.410;2022-07-24T16:45:10;5.88;;;2.80;;
45041;SDS011;30779;52.096;4.410;2022-07-24T16:48:11;2.83;;;2.50;;
45041;SDS011;30779;52.096;4.410;2022-07-24T16:51:11;2.80;;;2.23;;
45041;SDS011;30779;52.096;4.410;2022-07-24T16:54:12;2.73;;;2.33;;
45041;SDS011;30779;52.096;4.410;2022-07-24T16:57:12;3.30;;;2.80;;
45041;SDS011;30779;52.096;4.410;2022-07-24T17:00:13;2.53;;;2.30;;
45041;SDS011;30779;52.096;4.410;2022-07-24T17:03:14;3.13;;;2.55;;
45041;SDS011;30779;52.096;4.410;2022-07-24T17:06:15;3.70;;;2.93;;
45041;SDS011;30779;52.096;4.410;2022-07-24T17:09:16;3.88;;;2.53;;
45041;SDS011;30779;52.096;4.410;2022-07-24T17:12:17;4.47;;;3.05;;
45041;SDS011;30779;52.096;4.410;2022-07-24T17:15:17;3.72;;;2.78;;
45041;SDS011;30779;52.096;4.410;2022-07-24T17:18:18;7.03;;;3.47;;
45041;SDS011;30779;52.096;4.410;2022-07-24T17:21:19;3.58;;;2.70;;
45041;SDS011;30779;52.096;4.410;2022-07-24T17:24:19;5.00;;;2.92;;
45041;SDS011;30779;52.096;4.410;2022-07-24T17:27:20;5.68;;;3.28;;
45041;SDS011;30779;52.096;4.410;2022-07-24T17:30:21;5.47;;;3.33;;
45041;SDS011;30779;52.096;4.410;2022-07-24T17:33:22;4.57;;;2.80;;
45041;SDS011;30779;52.096;4.410;2022-07-24T17:36:22;4.43;;;3.20;;
45041;SDS011;30779;52.096;4.410;2022-07-24T17:39:23;3.67;;;2.95;;
45041;SDS011;30779;52.096;4.410;2022-07-24T17:42:24;4.07;;;2.97;;
45041;SDS011;30779;52.096;4.410;2022-07-24T17:45:24;3.20;;;2.78;;
45041;SDS011;30779;52.096;4.410;2022-07-24T17:48:25;4.05;;;2.78;;
45041;SDS011;30779;52.096;4.410;2022-07-24T17:51:26;3.45;;;3.13;;
45041;SDS011;30779;52.096;4.410;2022-07-24T17:54:26;3.13;;;2.58;;
45041;SDS011;30779;52.096;4.410;2022-07-24T17:57:27;5.22;;;3.00;;
45041;SDS011;30779;52.096;4.410;2022-07-24T18:00:27;4.03;;;2.97;;
45041;SDS011;30779;52.096;4.410;2022-07-24T18:03:28;8.52;;;3.60;;
45041;SDS011;30779;52.096;4.410;2022-07-24T18:06:29;4.00;;;3.17;;
45041;SDS011;30779;52.096;4.410;2022-07-24T18:09:29;4.00;;;2.83;;
45041;SDS011;30779;52.096;4.410;2022-07-24T18:15:33;2.80;;;2.53;;
45041;SDS011;30779;52.096;4.410;2022-07-24T18:18:33;3.97;;;3.33;;
45041;SDS011;30779;52.096;4.410;2022-07-24T18:21:34;5.38;;;2.80;;
45041;SDS011;30779;52.096;4.410;2022-07-24T18:24:35;4.68;;;3.00;;
45041;SDS011;30779;52.096;4.410;2022-07-24T18:27:35;3.55;;;2.90;;
45041;SDS011;30779;52.096;4.410;2022-07-24T18:30:36;4.65;;;2.65;;